Time;durP1;ratioP1;P1;durP2;ratioP2;P2;SDS_P1;SDS_P2;PMS_P1;PMS_P2;Temp;Humidity;BMP_temperature;BMP_pressure;BME280_temperature;BME280_humidity;BME280_pressure;Samples;Min_cycle;Max_cycle;Signal;HPM_P1;HPM_P2
2022/10/02 00:02:01;;;;;;;;;;;18.20;99.90;;;;;;5060928;28;19995;-11
2022/10/02 00:04:36;;;;;;;;;;;18.20;99.90;;;;;;5061163;28;19909;-11
2022/10/02 00:07:08;;;;;;;;;;;18.20;99.90;;;;;;5061251;28;19909;-11
2022/10/02 00:09:37;;;;;;;;;;;18.20;99.90;;;;;;5060677;28;19909;-11
2022/10/02 00:12:07;;;;;;;;;;;18.20;99.90;;;;;;5044148;28;20007;-11
2022/10/02 00:14:36;;;;;;;;;;;18.20;99.90;;;;;;5042892;28;19920;-11
2022/10/02 00:17:02;;;;;;;;;;;18.20;99.90;;;;;;5043225;28;19909;-11
2022/10/02 00:19:28;;;;;;;;;;;18.20;99.90;;;;;;5059154;28;19923;-11
2022/10/02 00:21:58;;;;;;;;;;;18.20;99.90;;;;;;5042821;28;19909;-11
2022/10/02 00:24:26;;;;;;;;;;;18.20;99.90;;;;;;5043259;28;20296;-11
2022/10/02 00:26:55;;;;;;;;;;;18.20;99.90;;;;;;5060984;28;19916;-11
2022/10/02 00:29:29;;;;;;;;;;;18.20;99.90;;;;;;5042538;28;20338;-11
2022/10/02 00:32:00;;;;;;;;;;;18.20;99.90;;;;;;5043115;28;19956;-11
2022/10/02 00:34:48;;;;;;;;;;;18.20;99.90;;;;;;5059620;28;19913;-11
2022/10/02 00:37:19;;;;;;;;;;;18.20;99.90;;;;;;5060346;28;20193;-11
2022/10/02 00:39:48;;;;;;;;;;;18.20;99.90;;;;;;5042722;28;19919;-11
2022/10/02 00:42:17;;;;;;;;;;;18.20;99.90;;;;;;5060181;28;19920;-11
2022/10/02 00:44:42;;;;;;;;;;;18.20;99.90;;;;;;5059349;28;19913;-11
2022/10/02 00:47:08;;;;;;;;;;;18.10;99.90;;;;;;5058866;28;20220;-11
2022/10/02 00:49:39;;;;;;;;;;;18.20;99.90;;;;;;5059780;28;20317;-11
2022/10/02 00:52:23;;;;;;;;;;;18.20;99.90;;;;;;5042207;28;20003;-11
2022/10/02 00:54:51;;;;;;;;;;;18.20;99.90;;;;;;5059360;28;19944;-11
2022/10/02 00:57:27;;;;;;;;;;;18.10;99.90;;;;;;5059866;28;19971;-11
2022/10/02 01:00:06;;;;;;;;;;;18.20;99.90;;;;;;5042134;28;19913;-11
2022/10/02 01:02:42;;;;;;;;;;;18.20;99.90;;;;;;5059789;28;20163;-11
2022/10/02 01:05:09;;;;;;;;;;;18.20;99.90;;;;;;5043185;28;20253;-11
2022/10/02 01:07:35;;;;;;;;;;;18.20;99.90;;;;;;5059453;28;20264;-11
2022/10/02 01:10:01;;;;;;;;;;;18.20;99.90;;;;;;5042164;28;19909;-11
2022/10/02 01:12:27;;;;;;;;;;;18.10;99.90;;;;;;5058899;28;19936;-11
2022/10/02 01:14:53;;;;;;;;;;;18.10;99.90;;;;;;5059514;28;19917;-11
2022/10/02 01:17:18;;;;;;;;;;;18.10;99.90;;;;;;5041805;28;20274;-11
2022/10/02 01:19:44;;;;;;;;;;;18.10;99.90;;;;;;5058708;28;19908;-11
2022/10/02 01:22:28;;;;;;;;;;;18.20;99.90;;;;;;5041889;28;19909;-11
2022/10/02 01:24:55;;;;;;;;;;;18.10;99.90;;;;;;5041873;28;19924;-11
2022/10/02 01:27:22;;;;;;;;;;;18.20;99.90;;;;;;5059118;28;19995;-11
2022/10/02 01:29:51;;;;;;;;;;;18.20;99.90;;;;;;5042244;28;19909;-11
2022/10/02 01:32:17;;;;;;;;;;;18.20;99.90;;;;;;5059084;28;20400;-11
2022/10/02 01:34:43;;;;;;;;;;;18.20;99.90;;;;;;5059171;28;19948;-11
2022/10/02 01:37:09;;;;;;;;;;;18.20;99.90;;;;;;5059081;28;19913;-11
2022/10/02 01:39:35;;;;;;;;;;;18.20;99.90;;;;;;5058940;28;19909;-11
2022/10/02 01:42:01;;;;;;;;;;;18.20;99.80;;;;;;5059020;28;19973;-11
2022/10/02 01:44:27;;;;;;;;;;;18.20;99.80;;;;;;5041600;28;20003;-11
2022/10/02 01:47:01;;;;;;;;;;;18.20;99.80;;;;;;5059066;28;19973;-11
2022/10/02 01:49:26;;;;;;;;;;;18.20;99.80;;;;;;5059056;28;19916;-11
2022/10/02 01:52:10;;;;;;;;;;;18.20;99.80;;;;;;5041477;28;19913;-11
2022/10/02 01:54:36;;;;;;;;;;;18.20;99.80;;;;;;5040597;28;19908;-11
2022/10/02 01:57:05;;;;;;;;;;;18.20;99.70;;;;;;5058164;28;19920;-11
2022/10/02 01:59:42;;;;;;;;;;;18.20;99.70;;;;;;5056925;28;20241;-11
2022/10/02 02:02:24;;;;;;;;;;;18.20;99.70;;;;;;5040933;28;19909;-11
2022/10/02 02:05:08;;;;;;;;;;;18.20;99.60;;;;;;5056936;28;20206;-11
2022/10/02 02:07:45;;;;;;;;;;;18.20;99.60;;;;;;5057089;28;20336;-11
2022/10/02 02:10:29;;;;;;;;;;;18.20;99.60;;;;;;5057354;28;19920;-11
2022/10/02 02:12:58;;;;;;;;;;;18.20;99.60;;;;;;5057473;28;19939;-11
2022/10/02 02:15:27;;;;;;;;;;;18.20;99.60;;;;;;5040384;28;19923;-11
2022/10/02 02:18:11;;;;;;;;;;;18.20;99.60;;;;;;5039108;28;19909;-11
2022/10/02 02:20:42;;;;;;;;;;;18.20;99.50;;;;;;5056572;28;19909;-11
2022/10/02 02:23:14;;;;;;;;;;;18.20;99.60;;;;;;5039419;28;19916;-11
2022/10/02 02:25:40;;;;;;;;;;;18.20;99.50;;;;;;5057375;28;19913;-11
2022/10/02 02:28:08;;;;;;;;;;;18.20;99.50;;;;;;5040392;28;19909;-11
2022/10/02 02:30:36;;;;;;;;;;;18.20;99.50;;;;;;5040381;28;20321;-11
2022/10/02 02:33:06;;;;;;;;;;;18.20;99.50;;;;;;5040137;28;19935;-11
2022/10/02 02:35:34;;;;;;;;;;;18.20;99.50;;;;;;5057817;28;19917;-11
2022/10/02 02:38:02;;;;;;;;;;;18.20;99.50;;;;;;5040435;28;19916;-11
2022/10/02 02:40:29;;;;;;;;;;;18.20;99.50;;;;;;5057561;28;19973;-11
2022/10/02 02:43:01;;;;;;;;;;;18.20;99.50;;;;;;5057502;28;19912;-11
2022/10/02 02:45:36;;;;;;;;;;;18.20;99.50;;;;;;5057004;28;19944;-11
2022/10/02 02:48:07;;;;;;;;;;;18.20;99.40;;;;;;5057274;28;19940;-11
2022/10/02 02:50:53;;;;;;;;;;;18.20;99.40;;;;;;5057288;28;19999;-11
2022/10/02 02:53:25;;;;;;;;;;;18.20;99.40;;;;;;5058346;28;19923;-11
2022/10/02 02:55:52;;;;;;;;;;;18.20;99.40;;;;;;5040516;28;19909;-11
2022/10/02 02:58:29;;;;;;;;;;;18.20;99.40;;;;;;5040205;28;20266;-11
2022/10/02 03:00:54;;;;;;;;;;;18.20;99.40;;;;;;5057227;28;19916;-11
2022/10/02 03:03:20;;;;;;;;;;;18.20;99.40;;;;;;5056917;28;19908;-11
2022/10/02 03:05:48;;;;;;;;;;;18.20;99.40;;;;;;5056751;28;19909;-11
2022/10/02 03:08:26;;;;;;;;;;;18.20;99.40;;;;;;5038721;28;19936;-11
2022/10/02 03:10:55;;;;;;;;;;;18.20;99.40;;;;;;5038705;28;19967;-11
2022/10/02 03:13:29;;;;;;;;;;;18.20;99.40;;;;;;5039419;28;19912;-11
2022/10/02 03:15:55;;;;;;;;;;;18.20;99.40;;;;;;5057247;28;19909;-11
2022/10/02 03:18:35;;;;;;;;;;;18.20;99.40;;;;;;5057136;28;20265;-11
2022/10/02 03:21:06;;;;;;;;;;;18.20;99.40;;;;;;5039979;28;20181;-11
2022/10/02 03:23:35;;;;;;;;;;;18.20;99.40;;;;;;5056810;28;20050;-11
2022/10/02 03:26:10;;;;;;;;;;;18.20;99.40;;;;;;5057333;28;19916;-11
2022/10/02 03:28:37;;;;;;;;;;;18.20;99.40;;;;;;5058016;28;20434;-11
2022/10/02 03:31:03;;;;;;;;;;;18.20;99.40;;;;;;5056569;28;19909;-11
2022/10/02 03:33:30;;;;;;;;;;;18.20;99.40;;;;;;5056804;28;20006;-11
2022/10/02 03:35:56;;;;;;;;;;;18.20;99.40;;;;;;5057360;28;20221;-11
2022/10/02 03:38:31;;;;;;;;;;;18.20;99.40;;;;;;5040345;28;20278;-11
2022/10/02 03:40:59;;;;;;;;;;;18.20;99.40;;;;;;5057483;28;20000;-11
2022/10/02 03:43:27;;;;;;;;;;;18.20;99.40;;;;;;5057041;28;20442;-11
2022/10/02 03:45:54;;;;;;;;;;;18.20;99.40;;;;;;5039306;28;19920;-11
2022/10/02 03:48:19;;;;;;;;;;;18.20;99.40;;;;;;5057338;28;19909;-11
2022/10/02 03:50:45;;;;;;;;;;;18.20;99.40;;;;;;5039424;28;19967;-11
2022/10/02 03:53:15;;;;;;;;;;;18.20;99.40;;;;;;5056967;28;19913;-11
2022/10/02 03:55:55;;;;;;;;;;;18.20;99.40;;;;;;5057184;28;19971;-11
2022/10/02 03:58:21;;;;;;;;;;;18.20;99.40;;;;;;5057342;28;19921;-11
2022/10/02 04:01:01;;;;;;;;;;;18.20;99.40;;;;;;5040062;28;20012;-11
2022/10/02 04:03:33;;;;;;;;;;;18.20;99.40;;;;;;5057017;28;19974;-11
2022/10/02 04:06:10;;;;;;;;;;;18.20;99.40;;;;;;5039803;28;19952;-11
2022/10/02 04:08:40;;;;;;;;;;;18.20;99.40;;;;;;5057296;28;20357;-11
2022/10/02 04:11:12;;;;;;;;;;;18.20;99.40;;;;;;5039332;28;19917;-11
2022/10/02 04:13:57;;;;;;;;;;;18.20;99.40;;;;;;5039369;28;19913;-11
2022/10/02 04:16:46;;;;;;;;;;;18.20;99.40;;;;;;5039644;28;19963;-11
2022/10/02 04:19:17;;;;;;;;;;;18.20;99.40;;;;;;5028247;28;19909;-11
2022/10/02 04:21:47;;;;;;;;;;;18.20;99.40;;;;;;5039554;28;20262;-11
2022/10/02 04:24:28;;;;;;;;;;;18.20;99.30;;;;;;5056160;28;20007;-11
2022/10/02 04:27:10;;;;;;;;;;;18.20;99.30;;;;;;5056681;28;19934;-11
2022/10/02 04:29:37;;;;;;;;;;;18.20;99.30;;;;;;5056887;28;19940;-11
2022/10/02 04:32:14;;;;;;;;;;;18.20;99.30;;;;;;5056628;28;19920;-11
2022/10/02 04:34:40;;;;;;;;;;;18.20;99.30;;;;;;5056339;28;20187;-11
2022/10/02 04:37:09;;;;;;;;;;;18.20;99.30;;;;;;5039609;28;19908;-11
2022/10/02 04:39:40;;;;;;;;;;;18.20;99.30;;;;;;5039258;28;19959;-11
2022/10/02 04:42:15;;;;;;;;;;;18.20;99.30;;;;;;5039303;28;19913;-11
2022/10/02 04:45:08;;;;;;;;;;;18.20;99.30;;;;;;5059950;28;19940;-11
2022/10/02 04:47:45;;;;;;;;;;;18.20;99.30;;;;;;5042644;28;19952;-11
2022/10/02 04:50:31;;;;;;;;;;;18.20;99.30;;;;;;5042690;28;19931;-11
2022/10/02 04:53:19;;;;;;;;;;;18.20;99.30;;;;;;5049927;28;19936;-11
2022/10/02 04:56:15;;;;;;;;;;;18.20;99.30;;;;;;5059900;28;19937;-11
2022/10/02 04:58:53;;;;;;;;;;;18.20;99.30;;;;;;5006638;28;19964;-11
2022/10/02 05:01:28;;;;;;;;;;;18.20;99.30;;;;;;5059876;28;19908;-11
2022/10/02 05:03:54;;;;;;;;;;;18.20;99.30;;;;;;5059589;28;19913;-11
2022/10/02 05:06:20;;;;;;;;;;;18.20;99.40;;;;;;5060150;28;20054;-11
2022/10/02 05:09:18;;;;;;;;;;;18.20;99.30;;;;;;5059969;28;19909;-11
2022/10/02 05:11:50;;;;;;;;;;;18.20;99.30;;;;;;5025995;28;19908;-11
2022/10/02 05:14:30;;;;;;;;;;;18.20;99.30;;;;;;5061791;28;19974;-11
2022/10/02 05:17:05;;;;;;;;;;;18.20;99.30;;;;;;5061676;28;19909;-11
2022/10/02 05:19:38;;;;;;;;;;;18.20;99.40;;;;;;5061490;28;19943;-11
2022/10/02 05:22:03;;;;;;;;;;;18.20;99.40;;;;;;5079498;28;19957;-11
2022/10/02 05:24:29;;;;;;;;;;;18.20;99.60;;;;;;5079716;28;19912;-11
2022/10/02 05:26:57;;;;;;;;;;;18.20;99.30;;;;;;5079895;28;20019;-11
2022/10/02 05:29:42;;;;;;;;;;;18.20;99.30;;;;;;5079618;28;19919;-11
2022/10/02 05:32:33;;;;;;;;;;;18.20;99.40;;;;;;5062533;28;19920;-11
2022/10/02 05:35:22;;;;;;;;;;;18.20;99.30;;;;;;5056606;28;19920;-11
2022/10/02 05:37:49;;;;;;;;;;;18.20;99.30;;;;;;5078565;28;19909;-11
2022/10/02 05:40:38;;;;;;;;;;;18.20;99.30;;;;;;5060843;28;20271;-11
2022/10/02 05:43:07;;;;;;;;;;;18.20;99.30;;;;;;5065102;28;20201;-11
2022/10/02 05:45:42;;;;;;;;;;;18.20;99.30;;;;;;5060205;28;20198;-11
2022/10/02 05:48:14;;;;;;;;;;;18.20;99.30;;;;;;5060578;28;19908;-11
2022/10/02 05:50:40;;;;;;;;;;;18.20;99.20;;;;;;5061132;28;20249;-11
2022/10/02 05:53:24;;;;;;;;;;;18.20;99.30;;;;;;5078946;28;20286;-11
2022/10/02 05:56:20;;;;;;;;;;;18.20;99.30;;;;;;5078451;28;19917;-11
2022/10/02 05:58:53;;;;;;;;;;;18.20;99.20;;;;;;5041022;28;20006;-11
2022/10/02 06:01:26;;;;;;;;;;;18.20;99.30;;;;;;5078519;28;20000;-11
2022/10/02 06:03:59;;;;;;;;;;;18.20;99.50;;;;;;5060229;28;20151;-11
2022/10/02 06:06:32;;;;;;;;;;;18.20;99.20;;;;;;5060906;28;19908;-11
2022/10/02 06:09:04;;;;;;;;;;;18.20;99.30;;;;;;5078730;28;19909;-11
2022/10/02 06:11:29;;;;;;;;;;;18.20;99.20;;;;;;5078778;28;19913;-11
2022/10/02 06:14:19;;;;;;;;;;;18.20;99.20;;;;;;5060848;28;20065;-11
2022/10/02 06:16:56;;;;;;;;;;;18.20;99.20;;;;;;5078371;28;19908;-11
2022/10/02 06:19:27;;;;;;;;;;;18.20;99.20;;;;;;5077396;28;20010;-11
2022/10/02 06:21:57;;;;;;;;;;;18.20;99.20;;;;;;5077256;28;19909;-11
2022/10/02 06:24:31;;;;;;;;;;;18.20;99.20;;;;;;5077056;28;19909;-11
2022/10/02 06:27:03;;;;;;;;;;;18.20;99.20;;;;;;5060183;28;19916;-11
2022/10/02 06:29:41;;;;;;;;;;;18.20;99.40;;;;;;5059957;28;20455;-11
2022/10/02 06:32:09;;;;;;;;;;;18.20;99.10;;;;;;5077540;28;20429;-11
2022/10/02 06:34:34;;;;;;;;;;;18.30;99.00;;;;;;5059538;28;19912;-11
2022/10/02 06:37:17;;;;;;;;;;;18.30;98.90;;;;;;5077946;28;20238;-12
2022/10/02 06:39:47;;;;;;;;;;;18.40;98.80;;;;;;5077344;28;20283;-11
2022/10/02 06:42:18;;;;;;;;;;;18.50;98.60;;;;;;5077469;28;19908;-11
2022/10/02 06:44:52;;;;;;;;;;;18.60;98.40;;;;;;5059960;28;19962;-11
2022/10/02 06:47:21;;;;;;;;;;;18.80;98.00;;;;;;5059583;28;19948;-11
2022/10/02 06:50:10;;;;;;;;;;;18.80;97.70;;;;;;5077301;28;19908;-11
2022/10/02 06:52:47;;;;;;;;;;;18.70;97.80;;;;;;5012577;28;20294;-11
2022/10/02 06:55:19;;;;;;;;;;;18.60;97.90;;;;;;5059125;28;19923;-11
2022/10/02 06:57:47;;;;;;;;;;;18.60;98.00;;;;;;5076644;28;20447;-11
2022/10/02 07:00:18;;;;;;;;;;;18.60;98.10;;;;;;5077435;28;19978;-11
2022/10/02 07:03:02;;;;;;;;;;;18.50;98.10;;;;;;5059993;28;19909;-11
2022/10/02 07:05:37;;;;;;;;;;;18.50;98.20;;;;;;5077006;28;19962;-11
2022/10/02 07:08:22;;;;;;;;;;;18.50;98.20;;;;;;5060068;28;19920;-11
2022/10/02 07:11:24;;;;;;;;;;;18.50;98.30;;;;;;5077108;28;19910;-11
2022/10/02 07:13:57;;;;;;;;;;;18.50;98.30;;;;;;4976194;28;19930;-11
2022/10/02 07:16:23;;;;;;;;;;;18.50;98.30;;;;;;5061336;28;20006;-11
2022/10/02 07:19:09;;;;;;;;;;;18.50;98.30;;;;;;5077260;28;20453;-11
2022/10/02 07:21:58;;;;;;;;;;;18.50;98.40;;;;;;5076599;28;19919;-11
2022/10/02 07:24:42;;;;;;;;;;;18.50;98.40;;;;;;5076171;28;19935;-11
2022/10/02 07:27:14;;;;;;;;;;;18.50;98.40;;;;;;5076327;28;19994;-11
2022/10/02 07:30:06;;;;;;;;;;;18.60;98.50;;;;;;5075893;28;19912;-11
2022/10/02 07:32:37;;;;;;;;;;;18.50;98.40;;;;;;5071121;28;20278;-11
2022/10/02 07:35:21;;;;;;;;;;;18.60;98.50;;;;;;5076008;28;20368;-11
2022/10/02 07:38:00;;;;;;;;;;;18.60;98.50;;;;;;5075726;28;19951;-11
2022/10/02 07:40:29;;;;;;;;;;;18.60;98.60;;;;;;5073810;28;19909;-11
2022/10/02 07:43:00;;;;;;;;;;;18.60;98.70;;;;;;5076164;28;19932;-11
2022/10/02 07:45:40;;;;;;;;;;;18.60;98.70;;;;;;5058800;28;19917;-11
2022/10/02 07:48:41;;;;;;;;;;;18.70;98.70;;;;;;5075862;28;19939;-11
2022/10/02 07:51:46;;;;;;;;;;;18.70;98.80;;;;;;4976043;28;20349;-11
2022/10/02 07:54:16;;;;;;;;;;;18.70;98.80;;;;;;5058910;28;19912;-11
2022/10/02 07:56:43;;;;;;;;;;;18.70;99.10;;;;;;5059027;28;20003;-11
2022/10/02 07:59:11;;;;;;;;;;;18.70;99.10;;;;;;5058410;28;19908;-11
2022/10/02 08:01:39;;;;;;;;;;;18.80;99.10;;;;;;5076327;28;19908;-11
2022/10/02 08:04:24;;;;;;;;;;;18.80;99.20;;;;;;5076374;28;19908;-12
2022/10/02 08:06:52;;;;;;;;;;;18.70;99.30;;;;;;5075923;28;20347;-11
2022/10/02 08:09:23;;;;;;;;;;;18.80;99.30;;;;;;5058231;28;19916;-11
2022/10/02 08:11:57;;;;;;;;;;;18.80;99.20;;;;;;5075319;28;19955;-11
2022/10/02 08:14:30;;;;;;;;;;;18.90;99.30;;;;;;5075903;28;20339;-11
2022/10/02 08:17:00;;;;;;;;;;;18.90;99.70;;;;;;5058480;28;19919;-11
2022/10/02 08:19:25;;;;;;;;;;;18.80;99.50;;;;;;5079145;28;20007;-11
2022/10/02 08:21:57;;;;;;;;;;;18.80;99.50;;;;;;5079587;28;20019;-11
2022/10/02 08:24:25;;;;;;;;;;;18.80;99.60;;;;;;5079699;28;19908;-11
2022/10/02 08:26:59;;;;;;;;;;;18.80;99.60;;;;;;5079970;28;19908;-11
2022/10/02 08:29:25;;;;;;;;;;;18.90;99.50;;;;;;5062129;28;19940;-11
2022/10/02 08:31:51;;;;;;;;;;;19.00;99.40;;;;;;5063141;28;19959;-20
2022/10/02 08:34:24;;;;;;;;;;;19.00;99.30;;;;;;5061765;28;19978;-11
2022/10/02 08:37:08;;;;;;;;;;;19.10;99.30;;;;;;5079796;28;19916;-11
2022/10/02 08:39:50;;;;;;;;;;;19.30;98.80;;;;;;5079338;28;19955;-11
2022/10/02 08:42:16;;;;;;;;;;;19.40;98.50;;;;;;5078592;28;19955;-11
2022/10/02 08:44:41;;;;;;;;;;;19.50;98.30;;;;;;5060928;28;20009;-11
2022/10/02 08:47:22;;;;;;;;;;;19.60;98.20;;;;;;5079047;28;20206;-11
2022/10/02 08:49:52;;;;;;;;;;;19.50;98.30;;;;;;5061537;28;20005;-11
2022/10/02 08:52:23;;;;;;;;;;;19.60;98.40;;;;;;5079058;28;19920;-11
2022/10/02 08:55:01;;;;;;;;;;;19.60;98.20;;;;;;5079250;28;19913;-11
2022/10/02 08:57:46;;;;;;;;;;;19.70;98.10;;;;;;5079276;28;19919;-11
2022/10/02 09:00:27;;;;;;;;;;;19.80;97.80;;;;;;5078844;28;20221;-11
2022/10/02 09:02:53;;;;;;;;;;;19.90;97.40;;;;;;5060266;28;20148;-11
2022/10/02 09:05:24;;;;;;;;;;;20.00;97.30;;;;;;5059162;28;20007;-11
2022/10/02 09:08:02;;;;;;;;;;;20.20;97.10;;;;;;5076548;28;19999;-11
2022/10/02 09:10:34;;;;;;;;;;;20.20;96.80;;;;;;5059129;28;19916;-12
2022/10/02 09:12:59;;;;;;;;;;;20.30;96.60;;;;;;5070579;28;19924;-12
2022/10/02 09:15:31;;;;;;;;;;;20.50;96.10;;;;;;5071046;28;19908;-12
2022/10/02 09:18:15;;;;;;;;;;;20.50;96.00;;;;;;5064758;28;20534;-12
2022/10/02 09:20:46;;;;;;;;;;;20.30;96.30;;;;;;5066727;28;19928;-12
2022/10/02 09:23:21;;;;;;;;;;;20.20;96.70;;;;;;5057642;28;19909;-12
2022/10/02 09:25:49;;;;;;;;;;;20.00;97.00;;;;;;5057513;28;19908;-12
2022/10/02 09:28:18;;;;;;;;;;;19.90;97.30;;;;;;5057892;28;19917;-12
2022/10/02 09:31:02;;;;;;;;;;;19.80;97.60;;;;;;5059066;28;19908;-12
2022/10/02 09:33:48;;;;;;;;;;;19.70;97.90;;;;;;5060998;28;19912;-11
2022/10/02 09:36:44;;;;;;;;;;;19.60;98.20;;;;;;5043086;28;19909;-12
2022/10/02 09:39:33;;;;;;;;;;;19.60;98.40;;;;;;5061169;28;19909;-11
2022/10/02 09:41:59;;;;;;;;;;;19.60;98.60;;;;;;5064861;28;19909;-11
2022/10/02 09:44:44;;;;;;;;;;;19.50;98.60;;;;;;5048321;28;20130;-11
2022/10/02 09:47:29;;;;;;;;;;;19.60;98.60;;;;;;5046126;28;20066;-12
2022/10/02 09:50:04;;;;;;;;;;;19.70;98.40;;;;;;5061148;28;19967;-12
2022/10/02 09:52:36;;;;;;;;;;;19.80;98.10;;;;;;5063088;28;20019;-11
2022/10/02 09:55:24;;;;;;;;;;;20.00;97.90;;;;;;5046596;28;19920;-12
2022/10/02 09:57:53;;;;;;;;;;;20.00;97.70;;;;;;5061566;28;20316;-12
2022/10/02 10:00:21;;;;;;;;;;;20.00;97.70;;;;;;5064257;28;19908;-12
2022/10/02 10:02:47;;;;;;;;;;;20.00;97.80;;;;;;5077588;28;20185;-12
2022/10/02 10:05:39;;;;;;;;;;;19.90;98.00;;;;;;5077666;28;20353;-12
2022/10/02 10:08:17;;;;;;;;;;;19.80;98.20;;;;;;5072545;28;19935;-12
2022/10/02 10:10:55;;;;;;;;;;;19.80;98.30;;;;;;5071330;28;19908;-12
2022/10/02 10:13:31;;;;;;;;;;;19.80;98.40;;;;;;5070056;28;20305;-12
2022/10/02 10:16:10;;;;;;;;;;;19.80;98.50;;;;;;5071080;28;19990;-12
2022/10/02 10:18:41;;;;;;;;;;;19.70;98.60;;;;;;5053171;28;19918;-12
2022/10/02 10:21:13;;;;;;;;;;;19.90;98.50;;;;;;5053156;28;19915;-12
2022/10/02 10:24:03;;;;;;;;;;;20.00;98.30;;;;;;5053059;28;19935;-12
2022/10/02 10:26:52;;;;;;;;;;;20.10;98.00;;;;;;5051690;28;19916;-12
2022/10/02 10:29:33;;;;;;;;;;;20.30;97.90;;;;;;5014474;28;19982;-12
2022/10/02 10:31:59;;;;;;;;;;;20.40;97.30;;;;;;5050470;28;19969;-12
2022/10/02 10:34:33;;;;;;;;;;;20.30;97.30;;;;;;5070630;28;19920;-12
2022/10/02 10:40:03;;;;;;;;;;;20.40;97.30;;;;;;5036199;28;19931;-12
2022/10/02 10:42:51;;;;;;;;;;;20.40;97.30;;;;;;5047270;28;19920;-12
2022/10/02 10:45:17;;;;;;;;;;;20.50;97.20;;;;;;5045935;28;20107;-12
2022/10/02 10:48:05;;;;;;;;;;;20.40;97.10;;;;;;5047381;28;19985;-12
2022/10/02 10:50:37;;;;;;;;;;;20.40;97.20;;;;;;5048941;28;20220;-12
2022/10/02 10:53:03;;;;;;;;;;;20.40;97.20;;;;;;5065680;28;20012;-12
2022/10/02 10:55:28;;;;;;;;;;;20.40;97.30;;;;;;5048986;28;20011;-12
2022/10/02 10:58:03;;;;;;;;;;;20.40;97.20;;;;;;5050562;28;19964;-12
2022/10/02 11:00:40;;;;;;;;;;;20.40;97.20;;;;;;5050594;28;19908;-12
2022/10/02 11:03:26;;;;;;;;;;;20.50;97.10;;;;;;5066755;28;19908;-12
2022/10/02 11:05:52;;;;;;;;;;;20.60;96.80;;;;;;5049838;28;19917;-12
2022/10/02 11:08:32;;;;;;;;;;;20.70;96.60;;;;;;5069554;28;19909;-12
2022/10/02 11:11:16;;;;;;;;;;;20.70;96.70;;;;;;5049692;28;20168;-12
2022/10/02 11:14:02;;;;;;;;;;;20.70;96.60;;;;;;5067698;28;20177;-12
2022/10/02 11:16:36;;;;;;;;;;;20.70;96.50;;;;;;5049643;28;19920;-12
2022/10/02 11:19:01;;;;;;;;;;;20.80;96.40;;;;;;5049923;28;20100;-12
2022/10/02 11:21:45;;;;;;;;;;;20.80;96.40;;;;;;5051181;28;19994;-12
2022/10/02 11:24:19;;;;;;;;;;;20.70;96.50;;;;;;5068998;28;20308;-12
2022/10/02 11:27:03;;;;;;;;;;;20.60;96.70;;;;;;5050808;28;19920;-12
2022/10/02 11:29:33;;;;;;;;;;;20.60;96.80;;;;;;5066439;28;20069;-12
2022/10/02 11:32:13;;;;;;;;;;;20.60;96.90;;;;;;5048304;28;19939;-12
2022/10/02 11:34:57;;;;;;;;;;;20.50;96.90;;;;;;5048132;28;19913;-12
2022/10/02 11:37:23;;;;;;;;;;;20.50;97.00;;;;;;5049176;28;20266;-12
2022/10/02 11:40:03;;;;;;;;;;;20.50;97.00;;;;;;5049745;28;19935;-12
2022/10/02 11:42:53;;;;;;;;;;;20.50;97.10;;;;;;5067029;28;19919;-12
2022/10/02 11:45:19;;;;;;;;;;;20.60;97.00;;;;;;5068787;28;20297;-12
2022/10/02 11:47:45;;;;;;;;;;;20.60;96.80;;;;;;5068155;28;19909;-12
2022/10/02 11:50:34;;;;;;;;;;;20.70;96.70;;;;;;5067336;28;20042;-12
2022/10/02 11:53:10;;;;;;;;;;;20.70;96.70;;;;;;5057543;28;19936;-12
2022/10/02 11:55:54;;;;;;;;;;;20.70;96.60;;;;;;5071448;28;19912;-12
2022/10/02 11:58:39;;;;;;;;;;;20.70;96.60;;;;;;5071337;28;20371;-12
2022/10/02 12:01:09;;;;;;;;;;;20.70;96.60;;;;;;5073097;28;19908;-12
2022/10/02 12:03:45;;;;;;;;;;;20.70;96.60;;;;;;5070589;28;19920;-12
2022/10/02 12:06:29;;;;;;;;;;;20.80;96.50;;;;;;5052708;28;19920;-12
2022/10/02 12:08:55;;;;;;;;;;;20.80;96.40;;;;;;5054373;28;19920;-12
2022/10/02 12:11:34;;;;;;;;;;;20.80;96.30;;;;;;5071994;28;20192;-12
2022/10/02 12:14:28;;;;;;;;;;;20.80;96.10;;;;;;5054621;28;20258;-12
2022/10/02 12:17:15;;;;;;;;;;;20.80;96.00;;;;;;5053315;28;19913;-12
2022/10/02 12:28:58;;;;;;;;;;;20.90;96.00;;;;;;5072231;28;19919;-12
2022/10/02 12:31:32;;;;;;;;;;;20.90;96.10;;;;;;5071594;28;19908;-12
2022/10/02 12:34:07;;;;;;;;;;;20.90;96.00;;;;;;5073130;28;19929;-12
2022/10/02 12:36:55;;;;;;;;;;;20.90;96.00;;;;;;5061132;28;19936;-12
2022/10/02 12:39:27;;;;;;;;;;;20.90;96.10;;;;;;5078935;28;19998;-12
2022/10/02 12:42:10;;;;;;;;;;;20.80;96.10;;;;;;5078081;28;19977;-12
2022/10/02 12:45:00;;;;;;;;;;;20.80;96.20;;;;;;5061246;28;20015;-12
2022/10/02 12:47:28;;;;;;;;;;;20.70;96.20;;;;;;5078358;28;19934;-12
2022/10/02 12:50:12;;;;;;;;;;;20.70;96.30;;;;;;5077868;28;20003;-12
2022/10/02 12:52:56;;;;;;;;;;;20.70;96.30;;;;;;5077699;28;20007;-12
2022/10/02 12:55:40;;;;;;;;;;;20.70;96.30;;;;;;5076939;28;20320;-12
2022/10/02 12:58:16;;;;;;;;;;;20.70;96.40;;;;;;5060781;28;19915;-12
2022/10/02 13:00:45;;;;;;;;;;;20.70;96.50;;;;;;5078031;28;19912;-12
2022/10/02 13:03:25;;;;;;;;;;;20.60;96.60;;;;;;5077118;28;19920;-12
2022/10/02 13:05:52;;;;;;;;;;;20.60;96.70;;;;;;5053330;28;19939;-12
2022/10/02 13:08:18;;;;;;;;;;;20.60;96.70;;;;;;5071513;28;20271;-12
2022/10/02 13:11:04;;;;;;;;;;;20.70;96.60;;;;;;5053150;28;19909;-12
2022/10/02 13:13:30;;;;;;;;;;;20.70;96.50;;;;;;5068755;28;20213;-12
2022/10/02 13:16:03;;;;;;;;;;;20.70;96.50;;;;;;5067363;28;19909;-12
2022/10/02 13:18:42;;;;;;;;;;;20.70;96.40;;;;;;5068490;28;19913;-12
2022/10/02 13:21:20;;;;;;;;;;;20.70;96.40;;;;;;5069207;28;19912;-12
2022/10/02 13:23:49;;;;;;;;;;;20.70;96.30;;;;;;5069790;28;19990;-12
2022/10/02 13:26:21;;;;;;;;;;;20.70;96.30;;;;;;5070992;28;20005;-12
2022/10/02 13:28:52;;;;;;;;;;;20.70;96.40;;;;;;5052106;28;20011;-12
2022/10/02 13:31:35;;;;;;;;;;;20.70;96.50;;;;;;5052319;28;19916;-12
2022/10/02 13:34:19;;;;;;;;;;;20.60;96.50;;;;;;5070957;28;19960;-12
2022/10/02 13:37:00;;;;;;;;;;;20.60;96.70;;;;;;5071755;28;20301;-12
2022/10/02 13:39:29;;;;;;;;;;;20.60;96.80;;;;;;5069175;28;20346;-12
2022/10/02 13:42:00;;;;;;;;;;;20.50;96.90;;;;;;5068020;28;19919;-12
2022/10/02 13:44:38;;;;;;;;;;;20.50;96.90;;;;;;5068043;28;20773;-12
2022/10/02 13:47:14;;;;;;;;;;;20.50;96.90;;;;;;5052753;28;19916;-12
2022/10/02 13:49:52;;;;;;;;;;;20.60;96.90;;;;;;5067360;28;20435;-12
2022/10/02 13:52:37;;;;;;;;;;;20.50;96.90;;;;;;5069067;28;19986;-12
2022/10/02 13:55:21;;;;;;;;;;;20.50;96.90;;;;;;5067945;28;19944;-12
2022/10/02 13:57:53;;;;;;;;;;;20.60;96.90;;;;;;5050115;28;19910;-12
2022/10/02 14:00:37;;;;;;;;;;;20.60;96.90;;;;;;5070356;28;20254;-12
2022/10/02 14:03:10;;;;;;;;;;;20.60;96.90;;;;;;5049500;28;20194;-12
2022/10/02 14:05:40;;;;;;;;;;;20.60;96.90;;;;;;5051958;28;19919;-12
2022/10/02 14:08:24;;;;;;;;;;;20.60;96.90;;;;;;5068427;28;19908;-12
2022/10/02 14:10:59;;;;;;;;;;;20.60;97.00;;;;;;5067021;28;19908;-12
2022/10/02 14:13:27;;;;;;;;;;;20.60;97.00;;;;;;5066697;28;20277;-12
2022/10/02 14:16:17;;;;;;;;;;;20.60;97.10;;;;;;5064029;28;20000;-12
2022/10/02 14:18:46;;;;;;;;;;;20.50;97.10;;;;;;5065433;28;19913;-12
2022/10/02 14:21:30;;;;;;;;;;;20.50;97.10;;;;;;5065973;28;19923;-12
2022/10/02 14:23:58;;;;;;;;;;;20.50;97.20;;;;;;5067093;28;19908;-12
2022/10/02 14:26:30;;;;;;;;;;;20.50;97.20;;;;;;5067580;28;19913;-12
2022/10/02 14:28:55;;;;;;;;;;;20.50;97.50;;;;;;5067431;28;19998;-12
2022/10/02 14:31:21;;;;;;;;;;;20.50;97.20;;;;;;5066852;28;20233;-12
2022/10/02 14:34:07;;;;;;;;;;;20.50;97.20;;;;;;5069631;28;19912;-12
2022/10/02 14:36:39;;;;;;;;;;;20.50;97.20;;;;;;5049833;28;20074;-12
2022/10/02 14:39:40;;;;;;;;;;;20.50;97.10;;;;;;5049046;28;20126;-12
2022/10/02 14:42:17;;;;;;;;;;;20.50;97.10;;;;;;4965234;28;19922;-12
2022/10/02 14:45:02;;;;;;;;;;;20.50;97.10;;;;;;5054327;28;20173;-12
2022/10/02 14:47:41;;;;;;;;;;;20.50;97.10;;;;;;5066705;28;19925;-12
2022/10/02 14:50:36;;;;;;;;;;;20.40;97.10;;;;;;5069733;28;19909;-12
2022/10/02 14:53:04;;;;;;;;;;;20.40;97.10;;;;;;5046514;28;20325;-12
2022/10/02 14:55:43;;;;;;;;;;;20.40;97.10;;;;;;5050898;28;20101;-12
2022/10/02 14:58:24;;;;;;;;;;;20.40;97.20;;;;;;5066475;28;19917;-12
2022/10/02 15:00:59;;;;;;;;;;;20.40;97.20;;;;;;5063486;28;19919;-12
2022/10/02 15:03:37;;;;;;;;;;;20.40;97.20;;;;;;5065133;28;19970;-12
2022/10/02 15:06:09;;;;;;;;;;;20.40;97.30;;;;;;5066788;28;19936;-12
2022/10/02 15:08:40;;;;;;;;;;;20.40;97.30;;;;;;5063517;28;20001;-12
2022/10/02 15:11:17;;;;;;;;;;;20.40;97.30;;;;;;5065752;28;19909;-12
2022/10/02 15:13:45;;;;;;;;;;;20.40;97.40;;;;;;5066354;28;19913;-12